createdAt,value
2022-07-25T00:01:55.017Z,26.30
2022-07-25T00:04:25.719Z,26.30
2022-07-25T00:06:53.030Z,26.30
2022-07-25T00:09:20.275Z,26.20
2022-07-25T00:11:47.542Z,26.20
2022-07-25T00:14:14.790Z,26.10
2022-07-25T00:16:41.992Z,26.10
2022-07-25T00:19:11.091Z,26.10
2022-07-25T00:21:38.252Z,26.10
2022-07-25T00:24:06.027Z,26.20
2022-07-25T00:26:37.886Z,26.20
2022-07-25T00:29:07.160Z,26.10
2022-07-25T00:31:34.639Z,26.10
2022-07-25T00:34:02.462Z,26.20
2022-07-25T00:36:29.854Z,26.10
2022-07-25T00:38:57.056Z,26.20
2022-07-25T00:41:24.238Z,26.10
2022-07-25T00:43:51.467Z,25.90
2022-07-25T00:46:19.398Z,25.90
2022-07-25T00:48:48.316Z,25.90
2022-07-25T00:51:16.428Z,25.80
2022-07-25T00:53:44.846Z,25.70
2022-07-25T00:56:12.296Z,25.80
2022-07-25T00:58:39.444Z,25.70
2022-07-25T01:01:06.770Z,25.80
2022-07-25T01:03:34.147Z,25.70
2022-07-25T01:06:01.723Z,25.80
2022-07-25T01:08:29.380Z,25.70
2022-07-25T01:10:56.563Z,25.60
2022-07-25T01:13:23.831Z,25.60
2022-07-25T01:15:51.318Z,25.60
2022-07-25T01:18:18.543Z,25.30
2022-07-25T01:20:45.871Z,25.20
2022-07-25T01:23:13.054Z,25.10
2022-07-25T01:25:40.447Z,25.10
2022-07-25T01:28:07.783Z,25.00
2022-07-25T01:30:35.086Z,25.00
2022-07-25T01:33:07.061Z,25.00
2022-07-25T01:35:37.007Z,24.80
2022-07-25T01:38:06.183Z,24.80
2022-07-25T01:40:33.532Z,24.80
2022-07-25T01:43:00.833Z,24.70
2022-07-25T01:45:28.145Z,24.60
2022-07-25T01:47:55.312Z,24.50
2022-07-25T01:50:22.694Z,24.60
2022-07-25T01:52:50.254Z,24.50
2022-07-25T01:55:17.994Z,24.60
2022-07-25T01:57:49.891Z,24.50
2022-07-25T02:00:18.043Z,24.50
2022-07-25T02:02:45.837Z,24.50
2022-07-25T02:05:14.881Z,24.40
2022-07-25T02:07:42.397Z,24.50
2022-07-25T02:10:09.977Z,24.50
2022-07-25T02:12:38.102Z,24.50
2022-07-25T02:15:05.902Z,24.40
2022-07-25T02:17:33.173Z,24.40
2022-07-25T02:20:00.384Z,24.40
2022-07-25T02:22:27.655Z,24.40
2022-07-25T02:24:54.870Z,24.50
2022-07-25T02:27:22.275Z,24.50
2022-07-25T02:29:49.529Z,24.40
2022-07-25T02:32:16.780Z,24.40
2022-07-25T02:34:43.940Z,24.40
2022-07-25T02:37:12.989Z,24.50
2022-07-25T02:39:40.401Z,24.40
2022-07-25T02:42:07.636Z,24.40
2022-07-25T02:44:34.796Z,24.40
2022-07-25T02:47:02.129Z,24.40
2022-07-25T02:49:29.302Z,24.40
2022-07-25T02:51:57.658Z,24.40
2022-07-25T02:54:25.081Z,24.40
2022-07-25T02:56:52.390Z,24.40
2022-07-25T02:59:19.646Z,24.30
2022-07-25T03:01:46.882Z,24.20
2022-07-25T03:04:14.166Z,24.10
2022-07-25T03:06:43.717Z,24.10
2022-07-25T03:09:11.193Z,24.10
2022-07-25T03:11:38.683Z,24.20
2022-07-25T03:14:08.035Z,24.20
2022-07-25T03:16:35.604Z,24.20
2022-07-25T03:19:03.182Z,24.30
2022-07-25T03:21:30.543Z,24.30
2022-07-25T03:23:57.813Z,24.30
2022-07-25T03:26:30.489Z,24.20
2022-07-25T03:28:57.769Z,24.20
2022-07-25T03:31:25.016Z,24.20
2022-07-25T03:33:52.259Z,24.20
2022-07-25T03:36:19.462Z,24.20
2022-07-25T03:38:46.637Z,24.20
2022-07-25T03:41:13.877Z,24.20
2022-07-25T03:43:41.075Z,24.20
2022-07-25T03:46:08.374Z,24.20
2022-07-25T03:48:35.733Z,24.20
2022-07-25T03:51:06.912Z,24.00
2022-07-25T03:53:55.599Z,23.80
2022-07-25T03:56:23.918Z,23.70
2022-07-25T03:58:51.058Z,23.60
2022-07-25T04:01:18.364Z,23.60
2022-07-25T04:03:46.726Z,23.50
2022-07-25T04:06:13.978Z,23.30
2022-07-25T04:08:41.190Z,23.20
2022-07-25T04:11:08.401Z,23.00
2022-07-25T04:13:35.595Z,23.00
2022-07-25T04:16:02.826Z,23.00
2022-07-25T04:18:32.356Z,23.00
2022-07-25T04:21:02.083Z,23.00
2022-07-25T04:23:29.574Z,23.00
2022-07-25T04:25:57.217Z,23.00
2022-07-25T04:28:25.332Z,23.00
2022-07-25T04:30:53.365Z,23.00
2022-07-25T04:33:21.474Z,22.90
2022-07-25T04:35:48.949Z,22.90
2022-07-25T04:38:16.229Z,22.90
2022-07-25T04:40:43.407Z,22.80
2022-07-25T04:43:10.859Z,22.70
2022-07-25T04:45:38.198Z,22.70
2022-07-25T04:48:05.843Z,22.70
2022-07-25T04:50:33.090Z,22.70
2022-07-25T04:53:00.371Z,22.70
2022-07-25T04:55:27.664Z,22.90
2022-07-25T04:57:54.920Z,22.90
2022-07-25T05:00:23.856Z,22.90
2022-07-25T05:02:51.748Z,23.00
2022-07-25T05:05:21.559Z,23.00
2022-07-25T05:07:50.051Z,23.10
2022-07-25T05:10:17.746Z,23.20
2022-07-25T05:12:44.929Z,23.10
2022-07-25T05:15:12.641Z,23.10
2022-07-25T05:17:40.010Z,23.00
2022-07-25T05:20:07.991Z,22.90
2022-07-25T05:22:35.304Z,23.00
2022-07-25T05:25:02.608Z,23.00
2022-07-25T05:27:30.597Z,23.00
2022-07-25T05:29:57.929Z,23.10
2022-07-25T05:32:25.090Z,23.20
2022-07-25T05:34:52.436Z,23.20
2022-07-25T05:37:20.007Z,23.40
2022-07-25T05:39:47.203Z,23.40
2022-07-25T05:42:14.730Z,23.50
2022-07-25T05:44:42.033Z,23.50
2022-07-25T05:47:11.110Z,23.60
2022-07-25T05:49:38.837Z,23.70
2022-07-25T05:52:12.464Z,23.80
2022-07-25T05:54:40.529Z,23.80
2022-07-25T05:57:07.852Z,23.80
2022-07-25T05:59:35.065Z,23.90
2022-07-25T06:02:03.084Z,24.00
2022-07-25T06:04:30.409Z,24.00
2022-07-25T06:06:57.641Z,24.10
2022-07-25T06:09:24.974Z,24.10
2022-07-25T06:12:00.398Z,24.20
2022-07-25T06:14:29.528Z,24.30
2022-07-25T06:16:57.324Z,24.30
2022-07-25T06:19:24.718Z,24.40
2022-07-25T06:21:51.936Z,24.40
2022-07-25T06:24:19.293Z,24.40
2022-07-25T06:26:46.906Z,24.40
2022-07-25T06:29:14.160Z,24.50
2022-07-25T06:31:41.571Z,24.50
2022-07-25T06:34:13.475Z,24.50
2022-07-25T06:36:40.781Z,24.60
2022-07-25T06:39:08.025Z,24.50
2022-07-25T06:41:37.662Z,24.50
2022-07-25T06:44:05.519Z,24.40
2022-07-25T06:46:33.195Z,24.40
2022-07-25T06:49:00.656Z,24.50
2022-07-25T06:51:28.080Z,24.50
2022-07-25T06:53:55.357Z,24.50
2022-07-25T06:56:23.065Z,24.60
2022-07-25T06:58:50.320Z,24.60
2022-07-25T07:01:17.572Z,24.70
2022-07-25T07:03:44.944Z,24.70
2022-07-25T07:06:12.345Z,24.80
2022-07-25T07:08:39.617Z,25.00
2022-07-25T07:11:07.523Z,25.00
2022-07-25T07:13:35.137Z,25.00
2022-07-25T07:16:03.245Z,25.10
2022-07-25T07:18:30.543Z,25.10
2022-07-25T07:20:57.781Z,25.20
2022-07-25T07:23:25.266Z,25.20
2022-07-25T07:25:52.642Z,25.20
2022-07-25T07:28:20.653Z,25.30
2022-07-25T07:33:37.168Z,25.50
2022-07-25T07:36:04.800Z,25.50
2022-07-25T07:38:31.987Z,25.60
2022-07-25T07:40:59.609Z,25.70
2022-07-25T07:43:29.865Z,25.70
2022-07-25T07:46:01.312Z,25.80
2022-07-25T07:48:30.434Z,25.80
2022-07-25T07:50:58.520Z,25.90
2022-07-25T07:53:44.503Z,25.90
2022-07-25T07:56:12.379Z,26.00
2022-07-25T07:58:39.697Z,26.10
2022-07-25T08:01:08.003Z,26.10
2022-07-25T08:03:36.115Z,26.10
2022-07-25T08:06:04.348Z,26.10
2022-07-25T08:08:32.609Z,26.10
2022-07-25T08:11:00.155Z,26.10
2022-07-25T08:13:34.096Z,26.20
2022-07-25T08:16:03.558Z,26.20
2022-07-25T08:18:34.682Z,26.30
2022-07-25T08:21:06.519Z,26.30
2022-07-25T08:23:35.506Z,26.40
2022-07-25T08:26:04.051Z,26.50
2022-07-25T08:28:31.875Z,26.60
2022-07-25T08:30:59.308Z,26.60
2022-07-25T08:33:26.758Z,26.70
2022-07-25T08:35:55.634Z,26.70
2022-07-25T08:38:24.363Z,26.80
2022-07-25T08:40:52.990Z,26.90
2022-07-25T08:43:20.398Z,26.90
2022-07-25T08:45:50.617Z,26.90
2022-07-25T08:48:20.769Z,27.00
2022-07-25T08:50:49.251Z,27.00
2022-07-25T08:53:35.283Z,27.10
2022-07-25T08:56:14.845Z,27.20
2022-07-25T08:58:44.906Z,27.20
2022-07-25T09:01:13.733Z,27.30
2022-07-25T09:03:42.969Z,27.40
2022-07-25T09:06:18.992Z,27.40
2022-07-25T09:08:58.691Z,27.40
2022-07-25T09:11:27.688Z,27.50
2022-07-25T09:14:04.879Z,27.60
2022-07-25T09:16:35.427Z,27.60
2022-07-25T09:19:20.007Z,27.60
2022-07-25T09:22:00.747Z,27.70
2022-07-25T09:24:28.557Z,27.70
2022-07-25T09:26:58.587Z,27.80
2022-07-25T09:29:31.121Z,27.90
2022-07-25T09:32:00.234Z,27.90
2022-07-25T09:34:38.470Z,27.90
2022-07-25T09:37:09.425Z,28.10
2022-07-25T09:39:46.657Z,28.00
2022-07-25T09:42:28.003Z,28.00
2022-07-25T09:45:05.489Z,28.10
2022-07-25T09:47:35.396Z,28.30
2022-07-25T09:50:06.956Z,28.40
2022-07-25T09:52:37.761Z,28.40
2022-07-25T09:55:08.125Z,28.40
2022-07-25T09:57:35.288Z,28.40
2022-07-25T10:00:03.958Z,28.40
2022-07-25T10:02:56.050Z,28.50
2022-07-25T10:05:32.211Z,28.50
2022-07-25T10:08:00.114Z,28.50
2022-07-25T10:10:35.022Z,28.40
2022-07-25T10:13:10.547Z,28.40
2022-07-25T10:15:47.523Z,28.40
2022-07-25T10:18:16.811Z,28.40
2022-07-25T10:20:49.383Z,28.50
2022-07-25T10:23:28.146Z,28.50
2022-07-25T10:26:13.929Z,28.50
2022-07-25T10:28:53.406Z,28.60
2022-07-25T10:31:22.090Z,28.90
2022-07-25T10:33:57.061Z,29.00
2022-07-25T10:36:42.118Z,29.10
2022-07-25T10:39:11.796Z,29.10
2022-07-25T10:41:41.423Z,29.10
2022-07-25T10:44:14.183Z,29.10
2022-07-25T10:46:45.406Z,29.10
2022-07-25T10:49:32.074Z,29.10
2022-07-25T10:52:03.106Z,29.10
2022-07-25T10:54:38.682Z,29.00
2022-07-25T10:57:14.046Z,29.00
2022-07-25T10:59:41.612Z,29.00
2022-07-25T11:02:16.340Z,29.00
2022-07-25T11:04:44.878Z,29.00
2022-07-25T11:07:20.068Z,29.10
2022-07-25T11:09:58.085Z,29.10
2022-07-25T11:12:25.449Z,29.10
2022-07-25T11:15:00.718Z,29.20
2022-07-25T11:17:29.754Z,29.30
2022-07-25T11:20:01.213Z,29.20
2022-07-25T11:22:30.053Z,29.30
2022-07-25T11:24:57.982Z,29.30
2022-07-25T11:27:29.204Z,29.30
2022-07-25T11:30:22.547Z,29.50
2022-07-25T11:32:56.146Z,29.60
2022-07-25T11:35:32.050Z,29.60
2022-07-25T11:38:04.197Z,29.60
2022-07-25T11:40:34.044Z,29.70
2022-07-25T11:43:01.255Z,29.70
2022-07-25T11:45:33.574Z,29.70
2022-07-25T11:48:07.593Z,29.80
2022-07-25T11:50:37.548Z,29.90
2022-07-25T11:53:07.139Z,29.90
2022-07-25T11:55:38.199Z,29.90
2022-07-25T11:58:06.034Z,29.90
2022-07-25T12:00:41.232Z,30.10
2022-07-25T12:03:13.063Z,30.10
2022-07-25T12:05:44.761Z,30.10
2022-07-25T12:08:12.964Z,30.20
2022-07-25T12:10:41.943Z,30.30
2022-07-25T12:13:10.490Z,30.40
2022-07-25T12:15:42.244Z,30.50
2022-07-25T12:18:10.673Z,30.60
2022-07-25T12:20:43.186Z,30.60
2022-07-25T12:23:12.709Z,30.70
2022-07-25T12:25:46.638Z,30.90
2022-07-25T12:28:14.375Z,30.90
2022-07-25T12:30:43.811Z,31.10
2022-07-25T12:33:11.937Z,31.10
2022-07-25T12:35:41.333Z,31.20
2022-07-25T12:38:09.016Z,31.40
2022-07-25T12:40:36.371Z,31.50
2022-07-25T12:43:04.511Z,31.60
2022-07-25T12:45:31.830Z,31.80
2022-07-25T12:47:59.158Z,31.80
2022-07-25T12:50:26.359Z,32.00
2022-07-25T12:52:53.642Z,32.10
2022-07-25T12:55:22.939Z,32.30
2022-07-25T12:57:50.749Z,32.50
2022-07-25T13:00:20.596Z,32.80
2022-07-25T13:02:51.309Z,32.80
2022-07-25T13:05:19.741Z,33.00
2022-07-25T13:07:48.943Z,33.10
2022-07-25T13:10:17.249Z,33.30
2022-07-25T13:12:44.728Z,33.80
2022-07-25T13:15:12.090Z,34.50
2022-07-25T13:17:40.486Z,35.80
2022-07-25T13:20:08.792Z,37.40
2022-07-25T13:22:36.017Z,38.90
2022-07-25T13:25:03.915Z,39.70
2022-07-25T13:27:31.193Z,40.60
2022-07-25T13:29:58.480Z,41.00
2022-07-25T13:32:28.337Z,41.40
2022-07-25T13:34:55.792Z,42.10
2022-07-25T13:37:23.677Z,43.40
2022-07-25T13:39:51.308Z,44.30
2022-07-25T13:42:18.677Z,44.60
2022-07-25T13:44:45.912Z,44.90
2022-07-25T13:47:13.242Z,44.30
2022-07-25T13:49:41.319Z,44.50
2022-07-25T13:52:08.735Z,44.70
2022-07-25T13:54:35.954Z,43.80
2022-07-25T13:57:03.599Z,43.00
2022-07-25T13:59:30.989Z,42.80
2022-07-25T14:01:58.456Z,42.00
2022-07-25T14:04:25.857Z,41.40
2022-07-25T14:06:53.207Z,39.80
2022-07-25T14:09:21.701Z,40.20
2022-07-25T14:11:49.303Z,40.50
2022-07-25T14:14:17.119Z,40.40
2022-07-25T14:16:45.759Z,40.30
2022-07-25T14:19:13.046Z,40.10
2022-07-25T14:21:40.279Z,40.10
2022-07-25T14:24:08.010Z,39.90
2022-07-25T14:26:36.070Z,39.90
2022-07-25T14:29:04.371Z,39.90
2022-07-25T14:31:32.888Z,39.80
2022-07-25T14:34:00.222Z,39.80
2022-07-25T14:36:27.888Z,39.80
2022-07-25T14:38:55.213Z,39.40
2022-07-25T14:41:22.386Z,39.20
2022-07-25T14:43:49.711Z,39.30
2022-07-25T14:46:17.064Z,39.10
2022-07-25T14:48:44.475Z,39.30
2022-07-25T14:51:11.770Z,39.40
2022-07-25T14:53:39.206Z,39.60
2022-07-25T14:56:07.277Z,39.80
2022-07-25T14:58:34.901Z,39.80
2022-07-25T15:01:02.398Z,39.60
2022-07-25T15:03:29.786Z,39.50
2022-07-25T15:05:57.298Z,39.70
2022-07-25T15:08:24.613Z,39.60
2022-07-25T15:10:51.880Z,39.70
2022-07-25T15:13:34.449Z,39.30
2022-07-25T15:16:03.146Z,39.30
2022-07-25T15:18:30.586Z,39.20
2022-07-25T15:20:57.985Z,39.30
2022-07-25T15:23:26.303Z,39.40
2022-07-25T15:26:01.693Z,39.50
2022-07-25T15:28:30.468Z,39.50
2022-07-25T15:30:57.775Z,39.60
2022-07-25T15:33:25.477Z,39.70
2022-07-25T15:35:52.837Z,39.70
2022-07-25T15:38:20.123Z,39.80
2022-07-25T15:40:48.023Z,39.70
2022-07-25T15:43:15.217Z,39.80
2022-07-25T15:45:45.812Z,39.60
2022-07-25T15:48:15.167Z,39.50
2022-07-25T15:50:47.011Z,39.60
2022-07-25T15:53:15.164Z,39.60
2022-07-25T15:55:43.070Z,39.70
2022-07-25T15:58:11.643Z,39.80
2022-07-25T16:00:39.946Z,39.80
2022-07-25T16:03:07.601Z,39.80
2022-07-25T16:05:35.791Z,39.80
2022-07-25T16:08:03.956Z,39.80
2022-07-25T16:10:32.758Z,39.80
2022-07-25T16:13:00.077Z,39.80
2022-07-25T16:15:27.867Z,39.60
2022-07-25T16:18:01.837Z,39.30
2022-07-25T16:20:31.480Z,39.10
2022-07-25T16:22:59.733Z,38.90
2022-07-25T16:25:28.540Z,38.80
2022-07-25T16:27:57.036Z,38.70
2022-07-25T16:30:24.764Z,38.40
2022-07-25T16:32:52.150Z,38.40
2022-07-25T16:35:19.674Z,38.30
2022-07-25T16:37:46.814Z,38.10
2022-07-25T16:40:14.522Z,38.10
2022-07-25T16:42:42.548Z,38.00
2022-07-25T16:45:10.765Z,37.90
2022-07-25T16:47:40.151Z,37.80
2022-07-25T16:50:07.607Z,37.60
2022-07-25T16:52:35.056Z,37.40
2022-07-25T16:55:02.509Z,37.30
2022-07-25T16:57:31.676Z,37.30
2022-07-25T17:00:00.774Z,37.10
2022-07-25T17:02:29.832Z,37.00
2022-07-25T17:04:58.078Z,36.90
2022-07-25T17:07:25.904Z,36.80
2022-07-25T17:09:53.715Z,36.60
2022-07-25T17:12:21.507Z,36.50
2022-07-25T17:14:48.729Z,36.40
2022-07-25T17:17:16.276Z,36.30
2022-07-25T17:19:43.548Z,36.20
2022-07-25T17:22:11.169Z,36.10
2022-07-25T17:24:39.495Z,36.10
2022-07-25T17:27:08.285Z,36.00
2022-07-25T17:29:36.407Z,36.00
2022-07-25T17:32:05.981Z,35.90
2022-07-25T17:34:33.624Z,35.80
2022-07-25T17:37:03.966Z,35.60
2022-07-25T17:39:32.741Z,35.40
2022-07-25T17:42:01.123Z,35.20
2022-07-25T17:44:28.445Z,35.20
2022-07-25T17:46:56.197Z,35.00
2022-07-25T17:49:23.791Z,34.90
2022-07-25T17:51:51.744Z,34.80
2022-07-25T17:54:18.964Z,34.60
2022-07-25T17:56:46.443Z,34.50
2022-07-25T17:59:13.787Z,34.40
2022-07-25T18:01:41.250Z,34.30
2022-07-25T18:04:09.188Z,34.20
2022-07-25T18:06:36.981Z,34.00
2022-07-25T18:09:04.348Z,33.90
2022-07-25T18:11:31.551Z,33.70
2022-07-25T18:13:59.536Z,33.60
2022-07-25T18:16:27.043Z,33.40
2022-07-25T18:18:54.397Z,33.30
2022-07-25T18:21:21.751Z,33.10
2022-07-25T18:23:49.031Z,33.00
2022-07-25T18:26:16.596Z,32.90
2022-07-25T18:28:44.746Z,32.80
2022-07-25T18:31:12.221Z,32.70
2022-07-25T18:33:39.502Z,32.50
2022-07-25T18:36:07.872Z,32.40
2022-07-25T18:38:35.871Z,32.40
2022-07-25T18:41:28.109Z,32.30
2022-07-25T18:43:52.937Z,32.20
2022-07-25T18:46:20.425Z,32.20
2022-07-25T18:48:48.004Z,32.10
2022-07-25T18:51:15.533Z,32.10
2022-07-25T18:53:47.450Z,32.00
2022-07-25T18:56:15.973Z,32.00
2022-07-25T18:58:43.901Z,32.00
2022-07-25T19:01:11.517Z,31.90
2022-07-25T19:03:40.142Z,31.80
2022-07-25T19:06:09.400Z,31.80
2022-07-25T19:08:37.481Z,31.80
2022-07-25T19:11:05.315Z,31.70
2022-07-25T19:13:50.995Z,31.60
2022-07-25T19:16:19.335Z,31.60
2022-07-25T19:18:47.366Z,31.60
2022-07-25T19:21:17.573Z,31.50
2022-07-25T19:23:50.392Z,31.40
2022-07-25T19:26:20.134Z,31.30
2022-07-25T19:28:47.479Z,31.30
2022-07-25T19:31:15.227Z,31.30
2022-07-25T19:33:42.847Z,31.20
2022-07-25T19:36:10.411Z,31.20
2022-07-25T19:38:37.641Z,31.20
2022-07-25T19:41:05.149Z,31.20
2022-07-25T19:43:32.427Z,31.20
2022-07-25T19:45:59.672Z,31.20
2022-07-25T19:48:27.125Z,31.10
2022-07-25T19:50:54.301Z,31.10
2022-07-25T19:53:26.711Z,30.40
2022-07-25T19:55:55.999Z,30.00
2022-07-25T19:58:23.313Z,29.70
2022-07-25T20:00:50.709Z,29.60
2022-07-25T20:03:23.275Z,29.50
2022-07-25T20:05:52.084Z,29.50
2022-07-25T20:08:19.493Z,29.50
2022-07-25T20:10:48.363Z,29.50
2022-07-25T20:13:16.070Z,29.50
2022-07-25T20:15:43.676Z,29.50
2022-07-25T20:18:13.806Z,29.50
2022-07-25T20:20:46.921Z,29.50
2022-07-25T20:23:14.170Z,29.50
2022-07-25T20:25:41.419Z,29.50
2022-07-25T20:28:08.654Z,29.50
2022-07-25T20:30:37.099Z,29.40
2022-07-25T20:33:09.199Z,29.40
2022-07-25T20:35:38.608Z,29.40
2022-07-25T20:38:09.769Z,29.50
2022-07-25T20:40:42.879Z,29.40
2022-07-25T20:43:13.893Z,29.40
2022-07-25T20:45:41.320Z,29.40
2022-07-25T20:48:08.582Z,29.30
2022-07-25T20:50:39.546Z,29.30
2022-07-25T20:53:07.123Z,29.20
2022-07-25T20:55:34.968Z,29.20
2022-07-25T20:58:03.567Z,29.20
2022-07-25T21:00:31.083Z,29.00
2022-07-25T21:02:59.323Z,28.90
2022-07-25T21:05:27.442Z,28.80
2022-07-25T21:07:54.843Z,28.80
2022-07-25T21:10:22.201Z,28.70
2022-07-25T21:12:49.476Z,28.60
2022-07-25T21:15:17.117Z,28.60
2022-07-25T21:17:44.490Z,28.60
2022-07-25T21:20:13.522Z,28.50
2022-07-25T21:22:41.553Z,28.40
2022-07-25T21:25:10.329Z,28.40
2022-07-25T21:27:38.378Z,28.30
2022-07-25T21:30:08.174Z,28.30
2022-07-25T21:32:35.661Z,28.40
2022-07-25T21:35:03.513Z,28.40
2022-07-25T21:37:30.748Z,28.50
2022-07-25T21:39:58.056Z,28.50
2022-07-25T21:42:25.240Z,28.40
2022-07-25T21:44:54.232Z,28.40
2022-07-25T21:47:21.617Z,28.30
2022-07-25T21:50:07.477Z,28.30
2022-07-25T21:52:35.356Z,28.20
2022-07-25T21:55:04.524Z,28.20
2022-07-25T21:57:32.180Z,28.10
2022-07-25T21:59:59.710Z,28.10
2022-07-25T22:02:27.076Z,28.00
2022-07-25T22:04:54.292Z,27.90
2022-07-25T22:07:22.225Z,27.80
2022-07-25T22:09:50.250Z,27.80
2022-07-25T22:12:17.783Z,27.80
2022-07-25T22:14:45.025Z,27.80
2022-07-25T22:17:13.643Z,27.80
2022-07-25T22:19:41.018Z,27.70
2022-07-25T22:22:08.223Z,27.60
2022-07-25T22:24:35.502Z,27.50
2022-07-25T22:27:03.377Z,27.50
2022-07-25T22:29:30.611Z,27.40
2022-07-25T22:31:58.260Z,27.40
2022-07-25T22:34:25.901Z,27.40
2022-07-25T22:36:53.163Z,27.40
2022-07-25T22:39:20.482Z,27.30
2022-07-25T22:41:47.715Z,27.20
2022-07-25T22:44:15.325Z,27.10
2022-07-25T22:46:42.918Z,27.00
2022-07-25T22:49:10.809Z,27.00
2022-07-25T22:51:38.406Z,27.00
2022-07-25T22:54:05.979Z,26.80
2022-07-25T22:56:33.523Z,26.80
2022-07-25T22:59:00.790Z,26.80
2022-07-25T23:01:28.325Z,26.60
2022-07-25T23:03:55.731Z,26.60
2022-07-25T23:06:23.104Z,26.50
2022-07-25T23:08:50.646Z,26.40
2022-07-25T23:11:17.934Z,26.30
2022-07-25T23:13:45.201Z,26.40
2022-07-25T23:16:13.005Z,26.50
2022-07-25T23:18:40.392Z,26.50
2022-07-25T23:21:07.626Z,26.50
2022-07-25T23:23:34.900Z,26.50
2022-07-25T23:26:02.727Z,26.60
2022-07-25T23:28:30.091Z,26.50
2022-07-25T23:30:57.274Z,26.40
2022-07-25T23:33:25.849Z,26.40
2022-07-25T23:35:54.150Z,26.40
2022-07-25T23:38:21.968Z,26.40
2022-07-25T23:40:49.799Z,26.30
2022-07-25T23:43:32.449Z,26.20
2022-07-25T23:46:05.681Z,26.10
2022-07-25T23:48:34.764Z,26.10
2022-07-25T23:51:02.052Z,26.20
2022-07-25T23:53:29.309Z,26.20
2022-07-25T23:55:56.686Z,26.20
2022-07-25T23:58:23.900Z,26.10
